Time;durP1;ratioP1;P1;durP2;ratioP2;P2;SDS_P1;SDS_P2;PMS_P1;PMS_P2;Temp;Humidity;BMP_temperature;BMP_pressure;BME280_temperature;BME280_humidity;BME280_pressure;Samples;Min_cycle;Max_cycle;Signal;HPM_P1;HPM_P2
2023/08/13 00:01:13;;;;;;;9.88;3.03;;;;;;;20.43;100.00;100835.81;4998744;28;20254;-80
2023/08/13 00:03:40;;;;;;;20.17;5.75;;;;;;;20.41;100.00;100845.69;4990091;28;20240;-80
2023/08/13 00:06:07;;;;;;;6.70;2.08;;;;;;;20.37;100.00;100841.28;4998925;28;20681;-79
2023/08/13 00:08:33;;;;;;;14.18;4.40;;;;;;;20.39;100.00;100842.19;4994684;28;20230;-80
2023/08/13 00:11:08;;;;;;;12.25;3.70;;;;;;;20.42;100.00;100845.66;5015705;28;20726;-80
2023/08/13 00:13:35;;;;;;;14.98;4.43;;;;;;;20.36;100.00;100843.09;4986689;28;20227;-79
2023/08/13 00:16:01;;;;;;;7.93;2.47;;;;;;;20.35;100.00;100848.50;4998368;28;20307;-79
2023/08/13 00:18:29;;;;;;;14.70;4.32;;;;;;;20.24;100.00;100840.72;4989895;28;20223;-79
2023/08/13 00:20:55;;;;;;;6.25;1.92;;;;;;;20.23;100.00;100849.69;4995103;28;20259;-80
2023/08/13 00:23:22;;;;;;;6.97;2.20;;;;;;;20.22;100.00;100847.03;4988777;28;20231;-79
2023/08/13 00:25:49;;;;;;;8.95;2.72;;;;;;;20.23;100.00;100841.63;4995397;28;20239;-79
2023/08/13 00:28:16;;;;;;;7.60;2.40;;;;;;;20.15;100.00;100846.31;5001023;28;20220;-79
2023/08/13 00:30:42;;;;;;;18.05;5.47;;;;;;;20.12;100.00;100841.00;4992796;28;20255;-79
2023/08/13 00:33:09;;;;;;;9.98;3.25;;;;;;;20.14;100.00;100842.75;5001520;28;20711;-79
2023/08/13 00:35:36;;;;;;;14.50;4.43;;;;;;;20.10;100.00;100840.16;4986910;28;20234;-79
2023/08/13 00:38:03;;;;;;;13.30;4.53;;;;;;;20.04;100.00;100841.19;4998564;28;20227;-80
2023/08/13 00:40:29;;;;;;;8.77;2.78;;;;;;;20.03;100.00;100836.75;4989627;28;20230;-78
2023/08/13 00:42:56;;;;;;;7.28;2.45;;;;;;;19.99;100.00;100847.59;4995476;28;20227;-79
2023/08/13 00:45:23;;;;;;;6.47;2.08;;;;;;;19.96;100.00;100840.47;4998654;28;20227;-79
2023/08/13 00:47:50;;;;;;;10.57;3.47;;;;;;;19.96;100.00;100845.84;4993507;28;20318;-79
2023/08/13 00:50:17;;;;;;;7.47;2.38;;;;;;;19.90;100.00;100843.31;4993932;28;20224;-81
2023/08/13 00:52:44;;;;;;;14.75;4.70;;;;;;;19.86;100.00;100836.25;4993027;28;20365;-79
2023/08/13 00:55:11;;;;;;;10.85;3.25;;;;;;;19.82;100.00;100845.28;4999904;28;20249;-80
2023/08/13 00:57:38;;;;;;;21.50;6.53;;;;;;;19.80;100.00;100855.16;4992531;28;20246;-79
2023/08/13 01:00:06;;;;;;;8.40;2.85;;;;;;;19.69;100.00;100851.84;4994548;28;20318;-79
2023/08/13 01:02:33;;;;;;;12.68;4.10;;;;;;;19.69;100.00;100849.16;4989160;28;20703;-81
2023/08/13 01:05:00;;;;;;;8.15;2.75;;;;;;;19.67;100.00;100848.31;4998156;28;20332;-79
2023/08/13 01:07:30;;;;;;;11.02;3.35;;;;;;;19.65;100.00;100853.72;4995351;28;20223;-82
2023/08/13 01:10:11;;;;;;;10.82;3.38;;;;;;;19.57;100.00;100849.41;4991513;28;20242;-79
2023/08/13 01:12:56;;;;;;;15.50;4.95;;;;;;;19.52;100.00;100853.97;4987174;28;20226;-79
2023/08/13 01:15:28;;;;;;;7.60;2.60;;;;;;;19.57;100.00;100858.34;4990383;28;20240;-79
2023/08/13 01:17:55;;;;;;;10.75;3.85;;;;;;;19.60;100.00;100863.66;4985162;28;20220;-79
2023/08/13 01:20:29;;;;;;;11.02;3.80;;;;;;;19.65;100.00;100871.59;4995358;28;20236;-79
2023/08/13 01:22:56;;;;;;;9.18;2.90;;;;;;;19.70;100.00;100880.44;4993356;28;20588;-79
2023/08/13 01:25:25;;;;;;;8.45;3.00;;;;;;;19.70;100.00;100892.06;4994321;28;20224;-80
2023/08/13 01:28:08;;;;;;;14.93;5.30;;;;;;;19.66;100.00;100889.47;4984158;28;20227;-80
2023/08/13 01:31:13;;;;;;;12.13;4.03;;;;;;;19.54;100.00;100892.41;4973055;28;20613;-80
2023/08/13 01:33:41;;;;;;;14.00;4.43;;;;;;;19.50;100.00;100895.13;4976087;28;20231;-79
2023/08/13 01:36:09;;;;;;;8.80;2.83;;;;;;;19.51;100.00;100898.69;4992321;28;20643;-79
2023/08/13 01:38:35;;;;;;;19.13;6.07;;;;;;;19.46;100.00;100893.38;5006854;28;20241;-81
2023/08/13 01:41:03;;;;;;;9.13;3.28;;;;;;;19.36;100.00;100891.81;5010879;28;20248;-79
2023/08/13 01:43:30;;;;;;;10.40;3.85;;;;;;;19.49;100.00;100904.06;4999962;28;20777;-79
2023/08/13 01:45:59;;;;;;;10.35;3.50;;;;;;;19.37;100.00;100890.00;4995518;28;20242;-81
2023/08/13 01:48:26;;;;;;;7.25;2.80;;;;;;;19.30;100.00;100888.34;4994586;28;20228;-81
2023/08/13 01:50:52;;;;;;;11.93;3.75;;;;;;;19.30;100.00;100883.88;4987407;28;20223;-78
2023/08/13 01:53:20;;;;;;;7.80;2.50;;;;;;;19.31;100.00;100887.44;4994160;28;20231;-79
2023/08/13 01:55:46;;;;;;;12.05;3.92;;;;;;;19.25;100.00;100896.50;4989443;28;20247;-79
2023/08/13 01:58:13;;;;;;;8.43;2.80;;;;;;;19.15;100.00;100895.78;4994436;28;20224;-79
2023/08/13 02:00:40;;;;;;;10.57;3.50;;;;;;;19.11;100.00;100898.53;4986190;28;20234;-79
2023/08/13 02:03:07;;;;;;;5.53;1.92;;;;;;;19.17;100.00;100904.69;4996994;28;20801;-80
2023/08/13 02:05:34;;;;;;;12.30;4.10;;;;;;;19.24;100.00;100921.53;4994388;28;20228;-79
2023/08/13 02:08:00;;;;;;;8.75;3.10;;;;;;;19.22;100.00;100927.84;4994228;28;20227;-79
2023/08/13 02:10:27;;;;;;;8.38;2.97;;;;;;;19.24;100.00;100929.56;4991932;28;20229;-79
2023/08/13 02:12:54;;;;;;;7.82;3.15;;;;;;;19.32;100.00;100941.03;5008986;28;20238;-80
2023/08/13 02:15:21;;;;;;;7.53;2.42;;;;;;;19.38;100.00;100943.63;4995878;28;20322;-79
2023/08/13 02:17:47;;;;;;;14.52;4.82;;;;;;;19.46;100.00;100951.50;4977011;28;20314;-79
2023/08/13 02:20:14;;;;;;;8.50;2.65;;;;;;;19.41;100.00;100951.59;4992587;28;20232;-79
2023/08/13 02:22:41;;;;;;;12.23;4.50;;;;;;;19.44;100.00;100942.59;4988901;28;20289;-80
2023/08/13 02:25:08;;;;;;;14.50;4.82;;;;;;;19.35;100.00;100941.00;4990823;28;20224;-79
2023/08/13 02:27:35;;;;;;;14.02;4.78;;;;;;;19.27;100.00;100950.97;4985582;28;20258;-79
2023/08/13 02:30:03;;;;;;;10.52;3.63;;;;;;;19.28;100.00;100951.84;4996285;28;20228;-79
2023/08/13 02:32:30;;;;;;;9.70;3.60;;;;;;;19.22;100.00;100950.19;4992767;28;20241;-79
2023/08/13 02:34:57;;;;;;;7.88;2.90;;;;;;;19.31;100.00;100957.16;4988823;28;20299;-79
2023/08/13 02:37:24;;;;;;;8.73;3.00;;;;;;;19.23;100.00;100954.63;4998191;28;20310;-79
2023/08/13 02:39:50;;;;;;;7.57;2.75;;;;;;;19.26;100.00;100957.25;4982206;28;20379;-79
2023/08/13 02:42:17;;;;;;;8.25;2.92;;;;;;;19.19;100.00;100953.78;4988796;28;20751;-80
2023/08/13 02:44:44;;;;;;;15.02;4.68;;;;;;;19.13;100.00;100945.88;4984782;28;20227;-79
2023/08/13 02:47:11;;;;;;;6.47;2.47;;;;;;;19.11;100.00;100950.38;4995205;28;20224;-79
2023/08/13 02:49:37;;;;;;;12.45;4.35;;;;;;;19.07;100.00;100954.00;4993127;28;20246;-81
2023/08/13 02:52:04;;;;;;;6.65;2.47;;;;;;;19.05;100.00;100946.91;4994232;28;20224;-79
2023/08/13 02:54:31;;;;;;;9.10;3.20;;;;;;;19.02;100.00;100950.53;4985850;28;20224;-79
2023/08/13 02:56:59;;;;;;;8.82;2.88;;;;;;;19.04;100.00;100950.50;4993002;28;20236;-79
2023/08/13 02:59:26;;;;;;;5.78;1.90;;;;;;;18.97;100.00;100955.09;4999112;28;20423;-80
2023/08/13 03:01:53;;;;;;;11.07;3.75;;;;;;;18.86;100.00;100947.22;4988204;28;20238;-80
2023/08/13 03:04:19;;;;;;;6.97;2.47;;;;;;;18.90;100.00;100958.78;4994185;28;20742;-79
2023/08/13 03:06:46;;;;;;;11.15;3.50;;;;;;;18.91;100.00;100960.56;4987343;28;20330;-79
2023/08/13 03:09:21;;;;;;;11.80;4.00;;;;;;;18.97;100.00;100971.16;4990460;28;20248;-79
2023/08/13 03:11:48;;;;;;;14.30;4.45;;;;;;;19.00;100.00;100968.44;4986346;28;20313;-79
2023/08/13 03:14:15;;;;;;;9.85;3.08;;;;;;;18.98;100.00;100964.91;4994587;28;20383;-79
2023/08/13 03:16:42;;;;;;;15.68;4.85;;;;;;;19.06;100.00;100972.81;4982148;28;20255;-79
2023/08/13 03:19:09;;;;;;;11.45;3.72;;;;;;;19.07;100.00;100971.91;4992143;28;20285;-78
2023/08/13 03:21:35;;;;;;;13.80;4.72;;;;;;;19.05;100.00;100974.59;4987355;28;20223;-79
2023/08/13 03:24:02;;;;;;;12.25;4.07;;;;;;;19.02;100.00;100974.66;4994082;28;20230;-79
2023/08/13 03:26:30;;;;;;;10.90;3.55;;;;;;;19.04;100.00;100985.34;4984830;28;20219;-81
2023/08/13 03:28:57;;;;;;;9.82;3.33;;;;;;;19.13;100.00;100990.56;4987451;28;20828;-79
2023/08/13 03:31:24;;;;;;;8.95;2.95;;;;;;;19.13;100.00;100990.56;4991002;28;20270;-79
2023/08/13 03:33:50;;;;;;;8.82;2.95;;;;;;;19.10;100.00;100990.59;4990375;28;20255;-79
2023/08/13 03:36:17;;;;;;;11.32;3.80;;;;;;;19.12;100.00;100980.75;4991682;28;20231;-80
2023/08/13 03:38:44;;;;;;;13.05;4.00;;;;;;;19.06;100.00;100984.41;4975259;28;20239;-79
2023/08/13 03:41:10;;;;;;;7.70;2.45;;;;;;;19.09;100.00;100987.03;4990088;28;20224;-79
2023/08/13 03:43:37;;;;;;;16.90;5.72;;;;;;;19.03;100.00;100979.09;4988430;28;20227;-78
2023/08/13 03:46:04;;;;;;;8.50;2.85;;;;;;;19.02;100.00;100979.13;4990259;28;20231;-79
2023/08/13 03:48:31;;;;;;;11.38;3.47;;;;;;;19.04;100.00;100980.00;4981001;28;20286;-79
2023/08/13 03:50:57;;;;;;;9.80;2.70;;;;;;;19.01;100.00;100980.03;4991730;28;20243;-79
2023/08/13 03:53:24;;;;;;;7.28;2.58;;;;;;;18.99;100.00;100974.72;4994634;28;20235;-79
2023/08/13 03:55:51;;;;;;;10.40;3.35;;;;;;;19.06;100.00;100976.38;4987608;28;20284;-80
2023/08/13 03:58:18;;;;;;;8.38;2.72;;;;;;;19.04;100.00;100982.66;4994656;28;20225;-79
2023/08/13 04:00:45;;;;;;;19.27;6.40;;;;;;;19.03;100.00;100983.59;4988674;28;20238;-79
2023/08/13 04:03:11;;;;;;;9.23;2.97;;;;;;;19.01;100.00;100996.13;4993745;28;20235;-79
2023/08/13 04:05:51;;;;;;;6.95;2.67;;;;;;;19.00;100.00;100991.69;4987344;28;20232;-78
2023/08/13 04:08:18;;;;;;;7.13;2.35;;;;;;;18.97;100.00;100989.03;5002293;28;20242;-79
2023/08/13 04:10:45;;;;;;;14.20;4.53;;;;;;;19.06;100.00;100999.63;4996838;28;20235;-78
2023/08/13 04:13:12;;;;;;;8.55;3.10;;;;;;;19.11;100.00;101006.66;4999895;28;20618;-78
2023/08/13 04:15:38;;;;;;;13.55;4.40;;;;;;;19.09;100.00;101000.44;4994833;28;20231;-79
2023/08/13 04:18:06;;;;;;;4.57;1.77;;;;;;;19.15;100.00;101011.06;4987154;28;20236;-78
2023/08/13 04:20:35;;;;;;;9.52;3.17;;;;;;;19.11;100.00;101003.09;4992494;28;20230;-80
2023/08/13 04:23:02;;;;;;;6.82;2.53;;;;;;;19.08;100.00;101001.34;4997382;28;20319;-78
2023/08/13 04:25:28;;;;;;;12.75;4.57;;;;;;;19.15;100.00;101005.72;4992327;28;20223;-79
2023/08/13 04:27:55;;;;;;;9.38;3.40;;;;;;;19.17;100.00;101000.31;4988733;28;20234;-78
2023/08/13 04:30:22;;;;;;;6.82;2.50;;;;;;;19.12;100.00;100997.72;4993115;28;20229;-79
2023/08/13 04:32:53;;;;;;;5.93;2.15;;;;;;;19.20;100.00;101000.25;4986241;28;20236;-79
2023/08/13 04:35:24;;;;;;;9.48;3.88;;;;;;;19.16;100.00;100998.53;4995183;28;20603;-78
2023/08/13 04:37:51;;;;;;;7.43;2.58;;;;;;;19.25;100.00;101008.22;4984053;28;20298;-78
2023/08/13 04:40:18;;;;;;;7.43;2.60;;;;;;;19.18;100.00;100999.41;4995171;28;20277;-78
2023/08/13 04:42:45;;;;;;;14.50;5.03;;;;;;;19.19;100.00;101007.44;4995340;28;20315;-80
2023/08/13 04:45:12;;;;;;;9.55;3.58;;;;;;;19.12;100.00;101002.19;4997407;28;20234;-78
2023/08/13 04:47:39;;;;;;;12.70;4.90;;;;;;;19.02;100.00;100998.78;4997203;28;20255;-79
2023/08/13 04:50:08;;;;;;;8.02;2.92;;;;;;;18.92;100.00;100993.59;4994555;28;20255;-78
2023/08/13 04:52:35;;;;;;;13.63;4.85;;;;;;;19.14;100.00;101017.34;4987144;28;20228;-81
2023/08/13 04:55:02;;;;;;;6.90;2.47;;;;;;;19.23;100.00;101018.97;4998769;28;20649;-78
2023/08/13 04:57:31;;;;;;;10.02;3.38;;;;;;;19.37;100.00;101026.78;4992248;28;20242;-78
2023/08/13 05:00:00;;;;;;;8.30;2.88;;;;;;;19.40;100.00;101030.31;4967270;28;20244;-78
2023/08/13 05:02:27;;;;;;;7.47;2.78;;;;;;;19.46;100.00;101031.97;5006438;28;20231;-79
2023/08/13 05:04:54;;;;;;;6.30;2.40;;;;;;;19.47;100.00;101031.06;4979828;28;20251;-77
2023/08/13 05:07:22;;;;;;;6.68;2.40;;;;;;;19.49;100.00;101027.44;4996536;28;20231;-76
2023/08/13 05:09:49;;;;;;;5.97;2.40;;;;;;;19.52;100.00;101023.91;4984317;28;20232;-76
2023/08/13 05:12:16;;;;;;;5.65;2.40;;;;;;;19.53;100.00;101019.41;4983784;28;20231;-77
2023/08/13 05:14:43;;;;;;;34.80;9.57;;;;;;;19.59;100.00;101014.81;4985322;28;20228;-77
2023/08/13 05:17:20;;;;;;;7.57;3.05;;;;;;;19.64;100.00;101012.94;4989637;28;20313;-77
2023/08/13 05:19:48;;;;;;;18.90;4.97;;;;;;;19.64;100.00;101010.25;4985228;28;20232;-77
2023/08/13 05:22:15;;;;;;;5.40;2.25;;;;;;;19.69;100.00;101011.03;4997283;28;20233;-77
2023/08/13 05:24:42;;;;;;;11.65;3.85;;;;;;;19.69;100.00;101007.47;4986513;28;20315;-77
2023/08/13 05:27:09;;;;;;;6.68;2.63;;;;;;;19.73;100.00;101002.03;5000634;28;20240;-77
2023/08/13 05:29:36;;;;;;;9.57;3.60;;;;;;;19.74;100.00;100997.53;4971336;28;20228;-80
2023/08/13 05:32:03;;;;;;;9.98;3.80;;;;;;;19.75;100.00;100997.50;4995013;28;20291;-78
2023/08/13 05:34:30;;;;;;;7.55;2.97;;;;;;;19.79;100.00;101001.00;5010266;28;20234;-79
2023/08/13 05:36:56;;;;;;;7.65;3.20;;;;;;;19.84;100.00;101006.28;4996619;28;20315;-78
2023/08/13 05:39:23;;;;;;;5.63;2.67;;;;;;;19.89;100.00;101002.59;4998484;28;20224;-77
2023/08/13 05:41:50;;;;;;;8.73;3.45;;;;;;;19.82;100.00;100987.53;5004984;28;20660;-79
2023/08/13 05:44:17;;;;;;;8.07;2.92;;;;;;;19.90;100.00;100998.13;5005600;28;20719;-77
2023/08/13 05:46:44;;;;;;;13.70;4.20;;;;;;;19.95;100.00;100993.53;5007961;28;20235;-77
2023/08/13 05:49:11;;;;;;;5.13;2.33;;;;;;;19.99;100.00;100993.44;4997532;28;20255;-77
2023/08/13 05:51:37;;;;;;;10.55;3.55;;;;;;;20.02;100.00;101003.22;4994550;28;20248;-77
2023/08/13 05:54:04;;;;;;;5.00;2.08;;;;;;;20.04;100.00;100994.22;4997938;28;20237;-77
2023/08/13 05:56:31;;;;;;;11.90;4.00;;;;;;;20.07;100.00;100987.91;4990794;28;20270;-77
2023/08/13 05:58:58;;;;;;;8.68;3.00;;;;;;;20.10;100.00;100994.09;4994102;28;20232;-78
2023/08/13 06:01:25;;;;;;;8.00;3.10;;;;;;;20.13;100.00;100987.78;5010673;28;20230;-78
2023/08/13 06:03:53;;;;;;;8.80;3.38;;;;;;;20.21;100.00;100974.19;4988746;28;20227;-79
2023/08/13 06:06:21;;;;;;;9.48;3.25;;;;;;;20.25;100.00;100976.78;4992397;28;20228;-78
2023/08/13 06:08:48;;;;;;;9.43;3.80;;;;;;;20.31;100.00;100963.19;4986396;28;20236;-79
2023/08/13 06:11:15;;;;;;;5.63;2.08;;;;;;;20.37;100.00;100955.00;4995816;28;20232;-79
2023/08/13 06:13:42;;;;;;;14.88;5.15;;;;;;;20.43;100.00;100948.63;4989699;28;20223;-78
2023/08/13 06:16:09;;;;;;;6.43;2.35;;;;;;;20.50;100.00;100949.38;4991980;28;20344;-78
2023/08/13 06:18:35;;;;;;;11.82;3.83;;;;;;;20.59;100.00;100935.72;4985496;28;20236;-79
2023/08/13 06:21:03;;;;;;;7.57;2.75;;;;;;;20.63;100.00;100937.41;4997064;28;20227;-79
2023/08/13 06:23:31;;;;;;;10.10;3.50;;;;;;;20.70;100.00;100933.66;4988540;28;20247;-80
2023/08/13 06:25:58;;;;;;;9.35;3.35;;;;;;;20.76;100.00;100930.81;4995147;28;20237;-79
2023/08/13 06:28:24;;;;;;;10.07;3.55;;;;;;;20.80;100.00;100927.13;4988512;28;20232;-79
2023/08/13 06:30:51;;;;;;;8.57;3.05;;;;;;;20.81;100.00;100917.28;4986271;28;20325;-79
2023/08/13 06:33:19;;;;;;;8.63;3.38;;;;;;;20.86;100.00;100910.00;4994405;28;20222;-80
2023/08/13 06:35:46;;;;;;;13.93;4.90;;;;;;;20.93;100.00;100896.34;4991810;28;20223;-79
2023/08/13 06:38:14;;;;;;;9.52;3.50;;;;;;;20.92;100.00;100893.72;5011884;28;20318;-79
2023/08/13 06:40:41;;;;;;;13.00;4.43;;;;;;;20.93;100.00;100877.53;4990778;28;20243;-78
2023/08/13 06:43:09;;;;;;;6.65;2.50;;;;;;;21.01;100.00;100883.59;4997036;28;20227;-79
2023/08/13 06:45:36;;;;;;;12.70;4.40;;;;;;;21.02;100.00;100874.59;4989756;28;20239;-80
2023/08/13 06:48:04;;;;;;;8.23;3.08;;;;;;;21.07;100.00;100875.34;5006731;28;20231;-79
2023/08/13 06:50:31;;;;;;;9.77;3.38;;;;;;;21.18;100.00;100877.75;4991532;28;20243;-78
2023/08/13 06:52:58;;;;;;;11.48;3.78;;;;;;;21.18;100.00;100867.00;4990688;28;20223;-78
2023/08/13 06:55:24;;;;;;;8.45;3.20;;;;;;;21.20;100.00;100854.38;4989199;28;20230;-79
2023/08/13 06:57:51;;;;;;;9.32;3.22;;;;;;;21.27;100.00;100857.81;4994813;28;20242;-79
2023/08/13 07:00:21;;;;;;;7.43;2.75;;;;;;;21.35;100.00;100856.66;4990389;28;20270;-79
2023/08/13 07:03:07;;;;;;;6.20;2.13;;;;;;;21.37;100.00;100849.44;4990296;28;20692;-80
2023/08/13 07:05:42;;;;;;;9.95;3.58;;;;;;;21.45;100.00;100842.94;4993631;28;20226;-79
2023/08/13 07:08:09;;;;;;;6.60;2.33;;;;;;;21.53;100.00;100841.78;4997747;28;20318;-77
2023/08/13 07:10:38;;;;;;;10.00;3.65;;;;;;;21.56;100.00;100828.25;5005266;28;20710;-77
2023/08/13 07:13:05;;;;;;;6.30;2.40;;;;;;;21.53;100.00;100809.50;4995911;28;20224;-77
2023/08/13 07:15:32;;;;;;;7.45;2.50;;;;;;;21.67;100.00;100811.78;4987180;28;20230;-76
2023/08/13 07:17:58;;;;;;;15.50;5.72;;;;;;;21.70;100.00;100809.00;4984303;28;20234;-77
2023/08/13 07:20:25;;;;;;;10.35;3.65;;;;;;;21.77;100.00;100802.50;4972646;28;20227;-78
2023/08/13 07:22:52;;;;;;;8.38;3.03;;;;;;;21.93;100.00;100801.06;4979758;28;20228;-78
2023/08/13 07:25:19;;;;;;;6.93;2.63;;;;;;;22.08;100.00;100807.81;4992080;28;20224;-77
2023/08/13 07:27:45;;;;;;;16.52;5.68;;;;;;;21.98;100.00;100790.16;4985688;28;20231;-77
2023/08/13 07:30:12;;;;;;;5.95;2.40;;;;;;;22.04;100.00;100787.28;4984249;28;20232;-78
2023/08/13 07:32:43;;;;;;;11.95;4.00;;;;;;;22.30;100.00;100800.81;4987174;28;20238;-80
2023/08/13 07:35:10;;;;;;;12.15;4.35;;;;;;;22.63;100.00;100803.28;4978672;28;21030;-77
2023/08/13 07:37:38;;;;;;;13.57;4.43;;;;;;;22.67;100.00;100784.25;4970484;28;20259;-77
2023/08/13 07:40:07;;;;;;;7.50;2.88;;;;;;;22.63;100.00;100771.81;4997607;28;20303;-77
2023/08/13 07:42:35;;;;;;;12.77;4.22;;;;;;;22.68;100.00;100772.53;4988486;28;20711;-77
2023/08/13 07:45:06;;;;;;;11.57;3.97;;;;;;;22.65;100.00;100743.00;4951878;28;20236;-78
2023/08/13 07:47:34;;;;;;;12.18;4.20;;;;;;;22.77;100.00;100743.50;4984058;28;20268;-79
2023/08/13 07:50:04;;;;;;;9.18;3.38;;;;;;;22.76;100.00;100714.78;4990620;28;20706;-78
2023/08/13 07:52:31;;;;;;;6.85;2.47;;;;;;;22.69;100.00;100692.53;4988482;28;20249;-79
2023/08/13 07:54:58;;;;;;;9.88;3.53;;;;;;;22.72;100.00;100683.47;4992553;28;20243;-78
2023/08/13 07:57:25;;;;;;;9.43;2.90;;;;;;;22.96;100.00;100683.47;5008940;28;20226;-80
2023/08/13 07:59:52;;;;;;;5.90;2.20;;;;;;;23.29;100.00;100710.06;4992756;28;20237;-78
2023/08/13 08:02:18;;;;;;;4.43;1.67;;;;;;;23.50;100.00;100719.19;4996435;28;20227;-78
2023/08/13 08:04:47;;;;;;;10.73;3.83;;;;;;;23.37;100.00;100694.47;4994963;28;20313;-77
2023/08/13 08:07:14;;;;;;;8.80;3.40;;;;;;;23.34;100.00;100683.78;5011505;28;20317;-82
2023/08/13 08:09:41;;;;;;;12.63;4.38;;;;;;;23.22;100.00;100655.47;4997894;28;20250;-79
2023/08/13 08:12:07;;;;;;;6.93;2.53;;;;;;;23.27;100.00;100650.75;4997161;28;20223;-81
2023/08/13 08:14:34;;;;;;;10.07;3.55;;;;;;;23.39;100.00;100645.81;5010920;28;20708;-79
2023/08/13 08:17:05;;;;;;;7.38;2.60;;;;;;;23.39;100.00;100624.22;5002813;28;20736;-79
2023/08/13 08:19:32;;;;;;;7.75;2.80;;;;;;;23.49;100.00;100612.13;4983692;28;20316;-80
2023/08/13 08:21:59;;;;;;;7.90;2.92;;;;;;;23.63;100.00;100606.19;5000467;28;20219;-82
2023/08/13 08:24:25;;;;;;;8.07;2.97;;;;;;;23.99;100.00;100644.25;5000663;28;20226;-80
2023/08/13 08:26:52;;;;;;;9.02;3.30;;;;;;;24.40;100.00;100643.34;4993987;28;20237;-79
2023/08/13 08:29:21;;;;;;;9.20;2.80;;;;;;;24.17;100.00;100579.50;4968132;28;20328;-79
2023/08/13 08:31:48;;;;;;;20.70;4.95;;;;;;;24.23;100.00;100556.72;4990814;28;20747;-79
2023/08/13 08:34:15;;;;;;;5.22;2.30;;;;;;;24.38;100.00;100538.94;5008108;28;20302;-79
2023/08/13 08:36:41;;;;;;;19.02;5.22;;;;;;;24.29;100.00;100494.31;4994264;28;20227;-80
2023/08/13 08:39:08;;;;;;;4.15;1.73;;;;;;;24.34;100.00;100500.38;4996893;28;20338;-79
2023/08/13 08:41:36;;;;;;;30.30;7.57;;;;;;;24.49;100.00;100515.88;4985945;28;20313;-79
2023/08/13 08:44:05;;;;;;;9.40;3.75;;;;;;;24.38;100.00;100430.84;5000647;28;20305;-79
2023/08/13 08:46:33;;;;;;;19.92;4.90;;;;;;;24.48;100.00;100405.97;4987549;28;20312;-80
2023/08/13 08:49:00;;;;;;;5.20;2.25;;;;;;;24.45;100.00;100399.84;4997875;28;20235;-79
2023/08/13 08:51:28;;;;;;;4.95;2.00;;;;;;;24.62;100.00;100409.84;4993006;28;20234;-82
2023/08/13 08:53:55;;;;;;;5.03;2.22;;;;;;;24.58;100.00;100382.06;4979145;28;20238;-79
2023/08/13 08:56:24;;;;;;;5.13;2.05;;;;;;;24.51;100.00;100329.25;4983780;28;20233;-81
2023/08/13 08:58:51;;;;;;;8.10;3.10;;;;;;;24.71;100.00;100334.56;4983469;28;20250;-79
2023/08/13 09:01:17;;;;;;;4.50;2.03;;;;;;;24.87;100.00;100346.34;5000937;28;20227;-79
2023/08/13 09:03:44;;;;;;;28.10;6.88;;;;;;;24.76;100.00;100339.75;4988427;28;20269;-80
2023/08/13 09:06:11;;;;;;;4.50;1.95;;;;;;;24.73;100.00;100307.44;4995951;28;20318;-79
2023/08/13 09:08:48;;;;;;;8.93;3.45;;;;;;;24.64;100.00;100280.84;4990153;28;20676;-77
2023/08/13 09:11:17;;;;;;;5.90;2.60;;;;;;;24.54;100.00;100251.59;5000208;28;20231;-78
2023/08/13 09:13:48;;;;;;;33.20;7.38;;;;;;;24.83;100.00;100281.69;4990664;28;20262;-78
2023/08/13 09:16:16;;;;;;;4.55;2.30;;;;;;;24.89;100.00;100267.84;5000597;28;20301;-81
2023/08/13 09:18:43;;;;;;;17.63;5.07;;;;;;;24.82;100.00;100234.81;4992268;28;20231;-78
2023/08/13 09:21:09;;;;;;;6.38;2.50;;;;;;;25.08;100.00;100255.09;5003302;28;20219;-78
2023/08/13 09:23:42;;;;;;;30.90;7.43;;;;;;;25.27;100.00;100241.44;4999964;28;20315;-79
2023/08/13 09:26:09;;;;;;;5.93;2.35;;;;;;;25.22;100.00;100207.47;4999675;28;20227;-80
2023/08/13 09:28:42;;;;;;;30.02;7.63;;;;;;;25.12;100.00;100218.81;4995055;28;20314;-77
2023/08/13 09:31:09;;;;;;;6.18;2.58;;;;;;;25.38;100.00;100252.56;4995816;28;20230;-78
2023/08/13 09:33:36;;;;;;;34.88;7.88;;;;;;;25.45;100.00;100201.66;4989324;28;20273;-77
2023/08/13 09:36:03;;;;;;;8.70;3.42;;;;;;;25.61;100.00;100159.22;5001450;28;20223;-77
2023/08/13 09:38:30;;;;;;;12.57;3.60;;;;;;;25.53;100.00;100147.94;4995205;28;20310;-78
2023/08/13 09:40:57;;;;;;;8.65;3.15;;;;;;;25.80;100.00;100207.81;4999048;28;20223;-77
2023/08/13 09:43:25;;;;;;;8.27;2.80;;;;;;;26.06;100.00;100209.03;5014580;28;20227;-77
2023/08/13 09:45:55;;;;;;;9.32;3.00;;;;;;;26.34;100.00;100211.91;4976439;28;20235;-77
2023/08/13 09:48:25;;;;;;;7.63;2.45;;;;;;;26.44;100.00;100191.41;4988537;28;20228;-77
2023/08/13 09:50:53;;;;;;;15.35;5.07;;;;;;;26.57;100.00;100149.97;4988668;28;20254;-77
2023/08/13 09:53:20;;;;;;;12.00;3.83;;;;;;;26.20;100.00;100119.66;5008518;28;20227;-79
2023/08/13 09:55:59;;;;;;;15.50;4.05;;;;;;;26.20;100.00;100037.47;4993394;28;20249;-77
2023/08/13 09:58:28;;;;;;;13.77;4.32;;;;;;;26.12;100.00;100013.56;4985436;28;20235;-78
2023/08/13 10:00:55;;;;;;;9.60;3.08;;;;;;;26.20;100.00;100060.03;4997854;28;20321;-77
2023/08/13 10:03:22;;;;;;;7.78;2.15;;;;;;;26.42;100.00;100074.03;5006545;28;20234;-78
2023/08/13 10:05:50;;;;;;;10.75;3.50;;;;;;;26.48;100.00;100025.81;4975412;28;20628;-81
2023/08/13 10:08:17;;;;;;;8.07;2.67;;;;;;;26.20;100.00;99996.81;5000074;28;20250;-79
2023/08/13 10:10:44;;;;;;;16.08;4.65;;;;;;;26.35;100.00;99961.53;4995881;28;20237;-79
2023/08/13 10:13:11;;;;;;;13.98;3.80;;;;;;;26.97;100.00;100019.00;4997614;28;20733;-78
2023/08/13 10:15:38;;;;;;;10.60;3.03;;;;;;;26.53;100.00;99953.19;4988057;28;20223;-78
2023/08/13 10:18:05;;;;;;;11.18;3.33;;;;;;;26.53;100.00;99962.19;4998401;28;20223;-79
2023/08/13 10:20:32;;;;;;;12.73;3.55;;;;;;;26.72;100.00;99943.75;4990929;28;20309;-79
2023/08/13 10:23:01;;;;;;;7.95;2.53;;;;;;;26.95;100.00;99919.66;4992589;28;20756;-79
2023/08/13 10:25:32;;;;;;;5.85;2.22;;;;;;;26.93;100.00;99943.31;4999016;28;20692;-79
2023/08/13 10:27:59;;;;;;;9.68;3.30;;;;;;;27.61;100.00;99940.56;4992544;28;20311;-79
2023/08/13 10:30:26;;;;;;;7.80;3.13;;;;;;;26.63;100.00;99797.03;4997652;28;20226;-79
2023/08/13 10:33:01;;;;;;;5.85;2.13;;;;;;;26.75;100.00;99847.72;4997973;28;20258;-78
2023/08/13 10:35:34;;;;;;;6.53;2.75;;;;;;;26.91;100.00;99825.84;5012335;28;20652;-79
2023/08/13 10:38:03;;;;;;;7.60;2.88;;;;;;;27.46;100.00;99888.16;4996828;28;20338;-80
2023/08/13 10:40:30;;;;;;;9.25;3.15;;;;;;;27.93;100.00;99913.84;4989382;28;20218;-80
2023/08/13 10:42:58;;;;;;;8.02;2.80;;;;;;;27.71;100.00;99877.34;5002303;28;20222;-78
2023/08/13 10:45:32;;;;;;;6.07;2.45;;;;;;;27.60;100.00;99765.84;5000716;28;20234;-78
2023/08/13 10:48:03;;;;;;;10.30;3.58;;;;;;;28.25;100.00;99833.59;4976622;28;20222;-78
2023/08/13 10:50:38;;;;;;;10.43;3.63;;;;;;;27.41;100.00;99768.13;4990648;28;20229;-81
2023/08/13 10:53:04;;;;;;;6.78;2.50;;;;;;;27.41;100.00;99776.25;4995566;28;20234;-78
2023/08/13 10:55:33;;;;;;;9.30;3.03;;;;;;;27.45;100.00;99771.47;4987920;28;20322;-79
2023/08/13 10:58:00;;;;;;;7.25;2.25;;;;;;;27.69;100.00;99813.22;4999735;28;20229;-79
2023/08/13 11:00:28;;;;;;;7.03;2.47;;;;;;;27.39;100.00;99762.78;4995354;28;20233;-81
2023/08/13 11:03:21;;;;;;;11.70;4.03;;;;;;;28.24;100.00;99825.53;4995976;28;20310;-78
2023/08/13 11:05:49;;;;;;;12.13;3.88;;;;;;;27.32;100.00;99644.75;4981336;28;20235;-78
2023/08/13 11:08:23;;;;;;;8.93;2.90;;;;;;;27.58;100.00;99727.03;4996905;28;20237;-78
2023/08/13 11:11:11;;;;;;;5.28;2.00;;;;;;;27.60;100.00;99600.16;5000543;28;20246;-78
2023/08/13 11:13:37;;;;;;;12.00;3.65;;;;;;;28.23;100.00;99638.94;5007024;28;20227;-78
2023/08/13 11:16:05;;;;;;;7.85;2.63;;;;;;;28.57;100.00;99675.28;5001648;28;20223;-78
2023/08/13 11:18:32;;;;;;;9.70;3.05;;;;;;;27.90;100.00;99645.91;4993128;28;20222;-78